Airfield :
LOGIN :

Register | Disclaimer

   EN    FR    IT 

 










Legend :    VFR   Marginal VFR   IFR   Intensive IFR   Very Intensive IFR
Visi :
Ceiling :
>= 8 km
>= 3000ft
5 to 8 km
1000 to 3000 ft
1500m to 5 km
500 to 1000 ft
800 to 1500m
200 to 500 ft
< 800m
< 200 ft
Symbols :   Thunderstorms  Fog  Heavy snow  Heavy precipitations  Wind > 20 kt
SIGMETs :     Misc.  Thunderstorms  Icing  Turbulence  Mountain Waves  Volcanic Ashes






- Airport Elevation : 648 ft
- IATA code : INI


LYNI - Nis Constantine

CURRENT METAR :
  • 311800Z VRB02KT 7000 DZ BKN015 BKN023 12/11 Q1021 NOSIG

EXPIRED METARs :
  • 311730Z 31004KT 280V340 9999 BKN023 13/10 Q1021 NOSIG
  • 311700Z 29005KT 240V350 9999 SCT020 BKN030 14/10 Q1021 NOSIG
  • 311630Z 27003KT 230V310 9999 BKN027 13/10 Q1021 NOSIG
  • 311600Z 33005KT 9999 FEW014 BKN033 14/10 Q1020 NOSIG

TAF TAF LYNI
Valid from the 31 at 18:00 until the 01 at 18:00 UTC


311700Z 3118/0118 30005KT 9999 SCT010 BKN023 TX16/0113Z TN07/0105Z
TEMPO 3118/3121 32015KT
BECMG 0102/0104 2000 BR BKN003
TEMPO 0104/0107 0600 FG
BECMG 0108/0110 CAVOK



MET'MAP, your aeronautical weather chart ! - Copyright ORBIFLY December 2007 - Disclaimer

ORBIFLY MET'MAP TEAM :

Programming & Development : Alexandra Zaïnal
Concept & original design : Baudouin d'Aumeries
Assistance for programming : Marc-Olivier Méhu
Technical & hardware support : Manuel Goepfert

Contact : metmap@orbifly.com




SOURCES & CREDITS :

   NOAA